sensor_id;sensor_type;location;lat;lon;timestamp;pressure;altitude;pressure_sealevel;temperature;humidity
35577;BME280;21680;52.400;16.920;2024-03-25T00:00:14;99072.05;;;5.81;84.14
35577;BME280;21680;52.400;16.920;2024-03-25T00:02:41;99072.64;;;5.83;84.01
35577;BME280;21680;52.400;16.920;2024-03-25T00:05:07;99071.52;;;5.84;84.22
35577;BME280;21680;52.400;16.920;2024-03-25T00:07:39;99068.47;;;5.82;83.94
35577;BME280;21680;52.400;16.920;2024-03-25T00:10:05;99070.10;;;5.81;84.04
35577;BME280;21680;52.400;16.920;2024-03-25T00:12:34;99065.19;;;5.80;84.17
35577;BME280;21680;52.400;16.920;2024-03-25T00:14:59;99064.50;;;5.79;84.17
35577;BME280;21680;52.400;16.920;2024-03-25T00:17:24;99065.59;;;5.79;84.05
35577;BME280;21680;52.400;16.920;2024-03-25T00:19:50;99067.48;;;5.80;84.28
35577;BME280;21680;52.400;16.920;2024-03-25T00:22:18;99065.55;;;5.80;84.02
35577;BME280;21680;52.400;16.920;2024-03-25T00:24:45;99063.77;;;5.80;84.14
35577;BME280;21680;52.400;16.920;2024-03-25T00:27:11;99066.23;;;5.80;84.21
35577;BME280;21680;52.400;16.920;2024-03-25T00:29:36;99066.81;;;5.83;84.30
35577;BME280;21680;52.400;16.920;2024-03-25T00:32:02;99062.55;;;5.83;84.33
35577;BME280;21680;52.400;16.920;2024-03-25T00:34:27;99064.78;;;5.84;84.19
35577;BME280;21680;52.400;16.920;2024-03-25T00:36:52;99060.73;;;5.84;84.38
35577;BME280;21680;52.400;16.920;2024-03-25T00:39:18;99060.05;;;5.83;84.27
35577;BME280;21680;52.400;16.920;2024-03-25T00:41:44;99062.29;;;5.81;84.27
35577;BME280;21680;52.400;16.920;2024-03-25T00:44:09;99054.38;;;5.80;84.31
35577;BME280;21680;52.400;16.920;2024-03-25T00:46:35;99052.65;;;5.79;84.33
35577;BME280;21680;52.400;16.920;2024-03-25T00:49:01;99050.29;;;5.77;84.28
35577;BME280;21680;52.400;16.920;2024-03-25T00:51:26;99052.28;;;5.76;84.30
35577;BME280;21680;52.400;16.920;2024-03-25T00:53:51;99049.92;;;5.77;84.28
35577;BME280;21680;52.400;16.920;2024-03-25T00:56:18;99047.84;;;5.80;84.31
35577;BME280;21680;52.400;16.920;2024-03-25T00:58:43;99041.42;;;5.80;84.45
35577;BME280;21680;52.400;16.920;2024-03-25T01:01:11;99041.11;;;5.79;84.45
35577;BME280;21680;52.400;16.920;2024-03-25T01:03:37;99040.44;;;5.79;84.36
35577;BME280;21680;52.400;16.920;2024-03-25T01:06:02;99045.05;;;5.82;84.41
35577;BME280;21680;52.400;16.920;2024-03-25T01:08:29;99041.59;;;5.80;84.25
35577;BME280;21680;52.400;16.920;2024-03-25T01:10:54;99041.85;;;5.79;84.43
35577;BME280;21680;52.400;16.920;2024-03-25T01:13:20;99036.66;;;5.80;84.44
35577;BME280;21680;52.400;16.920;2024-03-25T01:15:45;99039.40;;;5.81;84.56
35577;BME280;21680;52.400;16.920;2024-03-25T01:18:11;99035.58;;;5.84;84.53
35577;BME280;21680;52.400;16.920;2024-03-25T01:20:36;99035.17;;;5.85;84.53
35577;BME280;21680;52.400;16.920;2024-03-25T01:23:01;99031.20;;;5.86;84.48
35577;BME280;21680;52.400;16.920;2024-03-25T01:25:26;99034.05;;;5.86;84.51
35577;BME280;21680;52.400;16.920;2024-03-25T01:27:51;99027.57;;;5.88;84.62
35577;BME280;21680;52.400;16.920;2024-03-25T01:30:17;99026.84;;;5.89;84.48
35577;BME280;21680;52.400;16.920;2024-03-25T01:32:44;99028.29;;;5.88;84.61
35577;BME280;21680;52.400;16.920;2024-03-25T01:35:11;99027.46;;;5.87;84.57
35577;BME280;21680;52.400;16.920;2024-03-25T01:37:37;99024.08;;;5.87;84.72
35577;BME280;21680;52.400;16.920;2024-03-25T01:40:02;99028.40;;;5.90;84.65
35577;BME280;21680;52.400;16.920;2024-03-25T01:42:30;99026.75;;;5.91;84.65
35577;BME280;21680;52.400;16.920;2024-03-25T01:44:55;99031.09;;;5.89;84.58
35577;BME280;21680;52.400;16.920;2024-03-25T01:47:21;99028.25;;;5.85;84.53
35577;BME280;21680;52.400;16.920;2024-03-25T01:49:46;99030.15;;;5.86;84.70
35577;BME280;21680;52.400;16.920;2024-03-25T01:52:12;99030.09;;;5.87;84.63
35577;BME280;21680;52.400;16.920;2024-03-25T01:54:38;99028.29;;;5.88;84.69
35577;BME280;21680;52.400;16.920;2024-03-25T01:57:03;99027.80;;;5.91;84.79
35577;BME280;21680;52.400;16.920;2024-03-25T01:59:29;99028.48;;;5.92;84.76
35577;BME280;21680;52.400;16.920;2024-03-25T02:01:55;99027.64;;;5.91;84.71
35577;BME280;21680;52.400;16.920;2024-03-25T02:04:21;99027.19;;;5.89;84.67
35577;BME280;21680;52.400;16.920;2024-03-25T02:06:46;99023.92;;;5.91;84.87
35577;BME280;21680;52.400;16.920;2024-03-25T02:09:12;99022.71;;;5.93;84.90
35577;BME280;21680;52.400;16.920;2024-03-25T02:11:38;99023.50;;;5.95;84.93
35577;BME280;21680;52.400;16.920;2024-03-25T02:14:04;99022.19;;;5.97;84.81
35577;BME280;21680;52.400;16.920;2024-03-25T02:16:30;99027.62;;;5.95;84.83
35577;BME280;21680;52.400;16.920;2024-03-25T02:18:55;99026.48;;;5.93;84.88
35577;BME280;21680;52.400;16.920;2024-03-25T02:21:20;99026.45;;;5.93;84.89
35577;BME280;21680;52.400;16.920;2024-03-25T02:23:46;99027.17;;;5.93;84.89
35577;BME280;21680;52.400;16.920;2024-03-25T02:26:13;99026.13;;;5.93;84.85
35577;BME280;21680;52.400;16.920;2024-03-25T02:28:38;99027.95;;;5.92;84.82
35577;BME280;21680;52.400;16.920;2024-03-25T02:31:03;99027.92;;;5.92;85.05
35577;BME280;21680;52.400;16.920;2024-03-25T02:33:28;99026.94;;;5.91;84.99
35577;BME280;21680;52.400;16.920;2024-03-25T02:35:53;99032.35;;;5.89;84.85
35577;BME280;21680;52.400;16.920;2024-03-25T02:38:19;99036.38;;;5.85;84.98
35577;BME280;21680;52.400;16.920;2024-03-25T02:40:45;99036.88;;;5.83;85.03
35577;BME280;21680;52.400;16.920;2024-03-25T02:43:11;99036.79;;;5.81;84.87
35577;BME280;21680;52.400;16.920;2024-03-25T02:45:37;99037.14;;;5.81;84.98
35577;BME280;21680;52.400;16.920;2024-03-25T02:48:02;99034.83;;;5.81;85.05
35577;BME280;21680;52.400;16.920;2024-03-25T02:50:27;99034.69;;;5.80;84.98
35577;BME280;21680;52.400;16.920;2024-03-25T02:52:53;99038.44;;;5.80;85.06
35577;BME280;21680;52.400;16.920;2024-03-25T02:55:18;99039.13;;;5.80;85.21
35577;BME280;21680;52.400;16.920;2024-03-25T02:57:43;99041.36;;;5.78;85.11
35577;BME280;21680;52.400;16.920;2024-03-25T03:00:09;99041.77;;;5.77;85.13
35577;BME280;21680;52.400;16.920;2024-03-25T03:02:35;99039.44;;;5.74;85.25
35577;BME280;21680;52.400;16.920;2024-03-25T03:05:00;99044.55;;;5.71;85.16
35577;BME280;21680;52.400;16.920;2024-03-25T03:07:26;99044.23;;;5.67;84.95
35577;BME280;21680;52.400;16.920;2024-03-25T03:09:51;99042.73;;;5.61;85.14
35577;BME280;21680;52.400;16.920;2024-03-25T03:12:16;99046.80;;;5.62;85.31
35577;BME280;21680;52.400;16.920;2024-03-25T03:14:42;99047.05;;;5.60;85.22
35577;BME280;21680;52.400;16.920;2024-03-25T03:17:07;99046.17;;;5.60;85.32
35577;BME280;21680;52.400;16.920;2024-03-25T03:19:32;99051.34;;;5.59;85.29
35577;BME280;21680;52.400;16.920;2024-03-25T03:21:58;99052.63;;;5.58;85.32
35577;BME280;21680;52.400;16.920;2024-03-25T03:24:23;99053.89;;;5.58;85.47
35577;BME280;21680;52.400;16.920;2024-03-25T03:26:49;99053.98;;;5.55;85.57
35577;BME280;21680;52.400;16.920;2024-03-25T03:29:14;99058.96;;;5.55;85.63
35577;BME280;21680;52.400;16.920;2024-03-25T03:31:40;99057.35;;;5.55;85.61
35577;BME280;21680;52.400;16.920;2024-03-25T03:34:05;99055.66;;;5.54;85.56
35577;BME280;21680;52.400;16.920;2024-03-25T03:36:30;99061.60;;;5.52;85.53
35577;BME280;21680;52.400;16.920;2024-03-25T03:38:55;99061.03;;;5.49;85.61
35577;BME280;21680;52.400;16.920;2024-03-25T03:41:21;99062.89;;;5.47;85.73
35577;BME280;21680;52.400;16.920;2024-03-25T03:43:46;99066.69;;;5.45;85.87
35577;BME280;21680;52.400;16.920;2024-03-25T03:46:11;99068.38;;;5.43;85.78
35577;BME280;21680;52.400;16.920;2024-03-25T03:48:37;99071.20;;;5.43;85.82
35577;BME280;21680;52.400;16.920;2024-03-25T03:51:06;99070.05;;;5.42;85.84
35577;BME280;21680;52.400;16.920;2024-03-25T03:53:33;99072.52;;;5.42;85.90
35577;BME280;21680;52.400;16.920;2024-03-25T03:56:00;99074.40;;;5.40;85.79
35577;BME280;21680;52.400;16.920;2024-03-25T03:58:32;99071.58;;;5.39;86.05
35577;BME280;21680;52.400;16.920;2024-03-25T04:00:58;99071.77;;;5.39;86.17
35577;BME280;21680;52.400;16.920;2024-03-25T04:03:23;99067.65;;;5.40;86.02
35577;BME280;21680;52.400;16.920;2024-03-25T04:05:49;99071.77;;;5.39;86.22
35577;BME280;21680;52.400;16.920;2024-03-25T04:08:14;99067.45;;;5.41;86.14
35577;BME280;21680;52.400;16.920;2024-03-25T04:10:40;99069.77;;;5.40;86.11
35577;BME280;21680;52.400;16.920;2024-03-25T04:13:06;99070.56;;;5.38;86.15
35577;BME280;21680;52.400;16.920;2024-03-25T04:15:35;99071.50;;;5.37;86.13
35577;BME280;21680;52.400;16.920;2024-03-25T04:18:02;99070.08;;;5.38;86.36
35577;BME280;21680;52.400;16.920;2024-03-25T04:20:27;99071.90;;;5.37;86.37
35577;BME280;21680;52.400;16.920;2024-03-25T04:22:53;99077.03;;;5.37;86.39
35577;BME280;21680;52.400;16.920;2024-03-25T04:25:19;99083.08;;;5.36;86.38
35577;BME280;21680;52.400;16.920;2024-03-25T04:27:44;99082.67;;;5.37;86.46
35577;BME280;21680;52.400;16.920;2024-03-25T04:30:10;99086.63;;;5.40;86.67
35577;BME280;21680;52.400;16.920;2024-03-25T04:32:37;99088.55;;;5.40;86.68
35577;BME280;21680;52.400;16.920;2024-03-25T04:35:03;99091.23;;;5.40;86.68
35577;BME280;21680;52.400;16.920;2024-03-25T04:37:29;99093.55;;;5.39;86.80
35577;BME280;21680;52.400;16.920;2024-03-25T04:39:55;99097.77;;;5.40;86.77
35577;BME280;21680;52.400;16.920;2024-03-25T04:42:21;99098.73;;;5.39;86.81
35577;BME280;21680;52.400;16.920;2024-03-25T04:44:47;99101.23;;;5.38;86.87
35577;BME280;21680;52.400;16.920;2024-03-25T04:47:12;99103.47;;;5.39;87.05
35577;BME280;21680;52.400;16.920;2024-03-25T04:49:40;99106.08;;;5.40;86.98
35577;BME280;21680;52.400;16.920;2024-03-25T04:52:05;99106.90;;;5.38;87.04
35577;BME280;21680;52.400;16.920;2024-03-25T04:54:30;99113.59;;;5.39;87.02
35577;BME280;21680;52.400;16.920;2024-03-25T04:56:56;99117.31;;;5.39;86.98
35577;BME280;21680;52.400;16.920;2024-03-25T04:59:21;99121.04;;;5.39;87.19
35577;BME280;21680;52.400;16.920;2024-03-25T05:01:46;99123.52;;;5.39;87.13
35577;BME280;21680;52.400;16.920;2024-03-25T05:04:11;99126.73;;;5.38;87.10
35577;BME280;21680;52.400;16.920;2024-03-25T05:06:37;99130.55;;;5.36;87.10
35577;BME280;21680;52.400;16.920;2024-03-25T05:09:02;99133.38;;;5.36;87.17
35577;BME280;21680;52.400;16.920;2024-03-25T05:11:27;99132.97;;;5.37;87.33
35577;BME280;21680;52.400;16.920;2024-03-25T05:13:53;99133.86;;;5.37;87.31
35577;BME280;21680;52.400;16.920;2024-03-25T05:16:18;99138.22;;;5.39;87.44
35577;BME280;21680;52.400;16.920;2024-03-25T05:18:43;99143.95;;;5.37;87.48
35577;BME280;21680;52.400;16.920;2024-03-25T05:21:08;99145.33;;;5.31;87.12
35577;BME280;21680;52.400;16.920;2024-03-25T05:23:34;99152.98;;;5.22;87.18
35577;BME280;21680;52.400;16.920;2024-03-25T05:25:59;99143.00;;;5.12;87.10
35577;BME280;21680;52.400;16.920;2024-03-25T05:28:25;99144.23;;;5.13;87.35
35577;BME280;21680;52.400;16.920;2024-03-25T05:30:50;99146.83;;;5.14;87.52
35577;BME280;21680;52.400;16.920;2024-03-25T05:33:15;99145.92;;;5.14;87.59
35577;BME280;21680;52.400;16.920;2024-03-25T05:35:41;99147.66;;;5.15;87.73
35577;BME280;21680;52.400;16.920;2024-03-25T05:38:06;99149.91;;;5.16;87.76
35577;BME280;21680;52.400;16.920;2024-03-25T05:40:32;99151.44;;;5.18;87.80
35577;BME280;21680;52.400;16.920;2024-03-25T05:42:58;99151.48;;;5.20;87.81
35577;BME280;21680;52.400;16.920;2024-03-25T05:45:23;99156.59;;;5.20;88.00
35577;BME280;21680;52.400;16.920;2024-03-25T05:47:52;99162.02;;;5.22;87.95
35577;BME280;21680;52.400;16.920;2024-03-25T05:50:17;99164.02;;;5.25;88.04
35577;BME280;21680;52.400;16.920;2024-03-25T05:52:42;99167.55;;;5.25;88.07
35577;BME280;21680;52.400;16.920;2024-03-25T05:55:08;99172.61;;;5.22;88.11
35577;BME280;21680;52.400;16.920;2024-03-25T05:57:35;99170.93;;;5.20;87.96
35577;BME280;21680;52.400;16.920;2024-03-25T06:00:00;99175.41;;;5.20;88.08
35577;BME280;21680;52.400;16.920;2024-03-25T06:02:26;99179.87;;;5.19;88.14
35577;BME280;21680;52.400;16.920;2024-03-25T06:04:51;99182.48;;;5.20;88.18
35577;BME280;21680;52.400;16.920;2024-03-25T06:07:16;99182.49;;;5.20;88.24
35577;BME280;21680;52.400;16.920;2024-03-25T06:09:41;99185.02;;;5.22;88.26
35577;BME280;21680;52.400;16.920;2024-03-25T06:12:06;99186.59;;;5.23;88.32
35577;BME280;21680;52.400;16.920;2024-03-25T06:14:33;99189.64;;;5.22;88.29
35577;BME280;21680;52.400;16.920;2024-03-25T06:16:58;99193.41;;;5.21;88.41
35577;BME280;21680;52.400;16.920;2024-03-25T06:19:23;99197.96;;;5.21;88.52
35577;BME280;21680;52.400;16.920;2024-03-25T06:21:50;99199.96;;;5.25;88.54
35577;BME280;21680;52.400;16.920;2024-03-25T06:24:15;99200.81;;;5.26;88.61
35577;BME280;21680;52.400;16.920;2024-03-25T06:26:40;99204.04;;;5.29;88.60
35577;BME280;21680;52.400;16.920;2024-03-25T06:29:05;99205.67;;;5.32;88.96
35577;BME280;21680;52.400;16.920;2024-03-25T06:31:31;99212.69;;;5.33;88.74
35577;BME280;21680;52.400;16.920;2024-03-25T06:34:15;99214.46;;;5.33;88.87
35577;BME280;21680;52.400;16.920;2024-03-25T06:36:43;99220.25;;;5.34;88.93
35577;BME280;21680;52.400;16.920;2024-03-25T06:39:10;99222.61;;;5.37;88.99
35577;BME280;21680;52.400;16.920;2024-03-25T06:41:36;99222.11;;;5.36;88.82
35577;BME280;21680;52.400;16.920;2024-03-25T06:44:02;99227.98;;;5.36;89.06
35577;BME280;21680;52.400;16.920;2024-03-25T06:46:27;99229.98;;;5.38;89.12
35577;BME280;21680;52.400;16.920;2024-03-25T06:48:52;99233.13;;;5.40;89.03
35577;BME280;21680;52.400;16.920;2024-03-25T06:51:18;99233.88;;;5.42;89.24
35577;BME280;21680;52.400;16.920;2024-03-25T06:53:43;99238.73;;;5.45;89.32
35577;BME280;21680;52.400;16.920;2024-03-25T06:56:08;99243.08;;;5.47;89.22
35577;BME280;21680;52.400;16.920;2024-03-25T06:58:34;99244.83;;;5.51;89.36
35577;BME280;21680;52.400;16.920;2024-03-25T07:01:08;99248.73;;;5.59;89.52
35577;BME280;21680;52.400;16.920;2024-03-25T07:03:35;99249.45;;;5.67;89.71
35577;BME280;21680;52.400;16.920;2024-03-25T07:06:01;99253.46;;;5.72;89.49
35577;BME280;21680;52.400;16.920;2024-03-25T07:08:27;99258.58;;;5.76;89.64
35577;BME280;21680;52.400;16.920;2024-03-25T07:10:53;99258.26;;;5.75;89.45
35577;BME280;21680;52.400;16.920;2024-03-25T07:13:18;99261.55;;;5.73;89.50
35577;BME280;21680;52.400;16.920;2024-03-25T07:15:44;99260.52;;;5.72;89.54
35577;BME280;21680;52.400;16.920;2024-03-25T07:18:09;99265.88;;;5.72;89.55
35577;BME280;21680;52.400;16.920;2024-03-25T07:20:36;99269.77;;;5.75;89.66
35577;BME280;21680;52.400;16.920;2024-03-25T07:23:02;99270.41;;;5.77;89.71
35577;BME280;21680;52.400;16.920;2024-03-25T07:25:28;99274.10;;;5.81;89.70
35577;BME280;21680;52.400;16.920;2024-03-25T07:27:54;99275.63;;;5.83;89.79
35577;BME280;21680;52.400;16.920;2024-03-25T07:30:20;99281.27;;;5.83;89.75
35577;BME280;21680;52.400;16.920;2024-03-25T07:32:49;99287.09;;;5.84;89.83
35577;BME280;21680;52.400;16.920;2024-03-25T07:35:14;99288.60;;;5.82;89.66
35577;BME280;21680;52.400;16.920;2024-03-25T07:37:42;99291.31;;;5.81;89.68
35577;BME280;21680;52.400;16.920;2024-03-25T07:40:08;99295.05;;;5.81;89.74
35577;BME280;21680;52.400;16.920;2024-03-25T07:42:34;99296.41;;;5.82;89.86
35577;BME280;21680;52.400;16.920;2024-03-25T07:45:00;99299.57;;;5.83;89.84
35577;BME280;21680;52.400;16.920;2024-03-25T07:47:25;99301.58;;;5.85;89.97
35577;BME280;21680;52.400;16.920;2024-03-25T07:49:51;99306.91;;;5.84;89.86
35577;BME280;21680;52.400;16.920;2024-03-25T07:52:16;99309.58;;;5.85;89.95
35577;BME280;21680;52.400;16.920;2024-03-25T07:54:41;99315.36;;;5.86;89.98
35577;BME280;21680;52.400;16.920;2024-03-25T07:57:08;99315.91;;;5.86;89.85
35577;BME280;21680;52.400;16.920;2024-03-25T07:59:34;99321.98;;;5.85;89.94
35577;BME280;21680;52.400;16.920;2024-03-25T08:02:00;99323.19;;;5.85;90.05
35577;BME280;21680;52.400;16.920;2024-03-25T08:04:25;99331.30;;;5.86;89.99
35577;BME280;21680;52.400;16.920;2024-03-25T08:06:50;99335.77;;;5.91;90.08
35577;BME280;21680;52.400;16.920;2024-03-25T08:09:16;99333.65;;;5.90;90.00
35577;BME280;21680;52.400;16.920;2024-03-25T08:11:42;99337.98;;;5.88;90.02
35577;BME280;21680;52.400;16.920;2024-03-25T08:14:12;99341.46;;;5.90;90.05
35577;BME280;21680;52.400;16.920;2024-03-25T08:16:37;99342.91;;;5.89;89.99
35577;BME280;21680;52.400;16.920;2024-03-25T08:19:03;99343.90;;;5.86;90.00
35577;BME280;21680;52.400;16.920;2024-03-25T08:21:28;99350.68;;;5.90;90.02
35577;BME280;21680;52.400;16.920;2024-03-25T08:23:53;99353.39;;;5.93;90.04
35577;BME280;21680;52.400;16.920;2024-03-25T08:26:19;99352.77;;;5.95;90.04
35577;BME280;21680;52.400;16.920;2024-03-25T08:28:44;99356.77;;;5.93;90.02
35577;BME280;21680;52.400;16.920;2024-03-25T08:31:09;99354.95;;;5.94;90.25
35577;BME280;21680;52.400;16.920;2024-03-25T08:33:36;99360.80;;;5.97;90.36
35577;BME280;21680;52.400;16.920;2024-03-25T08:36:01;99368.02;;;5.95;90.27
35577;BME280;21680;52.400;16.920;2024-03-25T08:38:26;99363.85;;;5.88;90.02
35577;BME280;21680;52.400;16.920;2024-03-25T08:40:51;99370.62;;;5.92;90.22
35577;BME280;21680;52.400;16.920;2024-03-25T08:43:17;99376.00;;;5.95;90.18
35577;BME280;21680;52.400;16.920;2024-03-25T08:45:44;99376.66;;;5.92;90.04
35577;BME280;21680;52.400;16.920;2024-03-25T08:48:09;99376.91;;;5.91;90.23
35577;BME280;21680;52.400;16.920;2024-03-25T08:50:34;99379.63;;;5.93;90.45
35577;BME280;21680;52.400;16.920;2024-03-25T08:52:59;99379.36;;;5.99;90.44
35577;BME280;21680;52.400;16.920;2024-03-25T08:55:25;99383.23;;;6.03;90.46
35577;BME280;21680;52.400;16.920;2024-03-25T08:57:50;99383.60;;;6.07;90.50
35577;BME280;21680;52.400;16.920;2024-03-25T09:00:17;99380.67;;;6.13;90.63
35577;BME280;21680;52.400;16.920;2024-03-25T09:02:43;99384.14;;;6.18;90.54
35577;BME280;21680;52.400;16.920;2024-03-25T09:05:09;99382.58;;;6.26;90.76
35577;BME280;21680;52.400;16.920;2024-03-25T09:07:35;99385.38;;;6.30;90.62
35577;BME280;21680;52.400;16.920;2024-03-25T09:10:00;99384.29;;;6.35;90.76
35577;BME280;21680;52.400;16.920;2024-03-25T09:12:44;99392.11;;;6.38;90.61
35577;BME280;21680;52.400;16.920;2024-03-25T09:15:09;99391.44;;;6.41;90.77
35577;BME280;21680;52.400;16.920;2024-03-25T09:17:35;99402.59;;;6.42;90.64
35577;BME280;21680;52.400;16.920;2024-03-25T09:20:02;99404.58;;;6.33;90.46
35577;BME280;21680;52.400;16.920;2024-03-25T09:22:29;99405.23;;;6.27;90.47
35577;BME280;21680;52.400;16.920;2024-03-25T09:24:54;99411.94;;;6.24;90.56
35577;BME280;21680;52.400;16.920;2024-03-25T09:27:19;99415.83;;;6.20;90.60
35577;BME280;21680;52.400;16.920;2024-03-25T09:29:45;99422.47;;;6.10;90.32
35577;BME280;21680;52.400;16.920;2024-03-25T09:32:10;99427.36;;;6.04;90.48
35577;BME280;21680;52.400;16.920;2024-03-25T09:34:35;99423.08;;;6.04;90.71
35577;BME280;21680;52.400;16.920;2024-03-25T09:37:01;99428.65;;;6.11;90.81
35577;BME280;21680;52.400;16.920;2024-03-25T09:39:27;99433.23;;;6.12;90.81
35577;BME280;21680;52.400;16.920;2024-03-25T09:42:00;99438.52;;;6.12;90.90
35577;BME280;21680;52.400;16.920;2024-03-25T09:44:28;99440.27;;;6.09;90.65
35577;BME280;21680;52.400;16.920;2024-03-25T09:46:56;99445.45;;;6.04;90.61
35577;BME280;21680;52.400;16.920;2024-03-25T09:49:21;99442.56;;;6.01;90.71
35577;BME280;21680;52.400;16.920;2024-03-25T09:51:46;99442.63;;;6.07;90.91
35577;BME280;21680;52.400;16.920;2024-03-25T09:54:12;99445.62;;;6.16;91.14
35577;BME280;21680;52.400;16.920;2024-03-25T09:56:38;99446.03;;;6.23;90.99
35577;BME280;21680;52.400;16.920;2024-03-25T09:59:04;99446.55;;;6.27;91.11
35577;BME280;21680;52.400;16.920;2024-03-25T10:01:30;99446.53;;;6.31;91.00
35577;BME280;21680;52.400;16.920;2024-03-25T10:03:55;99451.90;;;6.38;91.23
35577;BME280;21680;52.400;16.920;2024-03-25T10:06:20;99451.35;;;6.46;91.33
35577;BME280;21680;52.400;16.920;2024-03-25T10:08:46;99450.14;;;6.49;91.23
35577;BME280;21680;52.400;16.920;2024-03-25T10:11:11;99458.38;;;6.52;91.23
35577;BME280;21680;52.400;16.920;2024-03-25T10:13:40;99454.17;;;6.54;91.18
35577;BME280;21680;52.400;16.920;2024-03-25T10:16:07;99456.29;;;6.62;91.28
35577;BME280;21680;52.400;16.920;2024-03-25T10:18:32;99458.50;;;6.72;91.38
35577;BME280;21680;52.400;16.920;2024-03-25T10:21:00;99459.09;;;6.78;91.30
35577;BME280;21680;52.400;16.920;2024-03-25T10:23:26;99453.55;;;6.86;91.49
35577;BME280;21680;52.400;16.920;2024-03-25T10:25:55;99456.53;;;6.95;91.41
35577;BME280;21680;52.400;16.920;2024-03-25T10:28:20;99454.46;;;6.94;91.17
35577;BME280;21680;52.400;16.920;2024-03-25T10:30:48;99455.06;;;6.89;91.09
35577;BME280;21680;52.400;16.920;2024-03-25T10:33:17;99454.43;;;6.83;91.10
35577;BME280;21680;52.400;16.920;2024-03-25T10:35:45;99458.23;;;6.85;91.19
35577;BME280;21680;52.400;16.920;2024-03-25T10:38:14;99459.05;;;6.87;91.22
35577;BME280;21680;52.400;16.920;2024-03-25T10:40:44;99455.55;;;6.90;91.20
35577;BME280;21680;52.400;16.920;2024-03-25T10:43:11;99455.20;;;6.97;91.34
35577;BME280;21680;52.400;16.920;2024-03-25T10:45:40;99461.16;;;7.09;91.43
35577;BME280;21680;52.400;16.920;2024-03-25T10:48:28;99455.52;;;7.16;91.21
35577;BME280;21680;52.400;16.920;2024-03-25T10:50:58;99450.59;;;7.22;91.23
35577;BME280;21680;52.400;16.920;2024-03-25T10:53:29;99456.05;;;7.30;91.26
35577;BME280;21680;52.400;16.920;2024-03-25T10:55:58;99460.89;;;7.37;91.09
35577;BME280;21680;52.400;16.920;2024-03-25T10:58:27;99457.87;;;7.37;90.92
35577;BME280;21680;52.400;16.920;2024-03-25T11:00:53;99464.77;;;7.38;90.92
35577;BME280;21680;52.400;16.920;2024-03-25T11:03:22;99470.16;;;7.36;90.63
35577;BME280;21680;52.400;16.920;2024-03-25T11:05:49;99469.86;;;7.35;90.62
35577;BME280;21680;52.400;16.920;2024-03-25T11:08:18;99465.16;;;7.33;90.61
35577;BME280;21680;52.400;16.920;2024-03-25T11:10:45;99469.77;;;7.33;90.68
35577;BME280;21680;52.400;16.920;2024-03-25T11:13:17;99471.44;;;7.39;90.63
35577;BME280;21680;52.400;16.920;2024-03-25T11:15:48;99470.25;;;7.49;90.59
35577;BME280;21680;52.400;16.920;2024-03-25T11:18:17;99470.39;;;7.57;90.45
35577;BME280;21680;52.400;16.920;2024-03-25T11:20:45;99479.30;;;7.60;90.31
35577;BME280;21680;52.400;16.920;2024-03-25T11:23:11;99479.63;;;7.60;90.19
35577;BME280;21680;52.400;16.920;2024-03-25T11:25:38;99481.16;;;7.58;89.86
35577;BME280;21680;52.400;16.920;2024-03-25T11:28:03;99494.55;;;7.50;89.73
35577;BME280;21680;52.400;16.920;2024-03-25T11:30:29;99493.23;;;7.40;89.50
35577;BME280;21680;52.400;16.920;2024-03-25T11:32:57;99491.75;;;7.31;89.33
35577;BME280;21680;52.400;16.920;2024-03-25T11:35:28;99487.29;;;7.31;89.57
35577;BME280;21680;52.400;16.920;2024-03-25T11:37:53;99487.36;;;7.37;89.46
35577;BME280;21680;52.400;16.920;2024-03-25T11:40:19;99491.88;;;7.39;89.24
35577;BME280;21680;52.400;16.920;2024-03-25T11:42:45;99486.90;;;7.43;89.19
35577;BME280;21680;52.400;16.920;2024-03-25T11:45:18;99492.58;;;7.50;89.25
35577;BME280;21680;52.400;16.920;2024-03-25T11:47:45;99488.94;;;7.52;89.23
35577;BME280;21680;52.400;16.920;2024-03-25T11:50:12;99496.55;;;7.56;89.28
35577;BME280;21680;52.400;16.920;2024-03-25T11:52:38;99492.14;;;7.56;89.14
35577;BME280;21680;52.400;16.920;2024-03-25T11:55:03;99495.02;;;7.55;88.98
35577;BME280;21680;52.400;16.920;2024-03-25T11:57:29;99493.38;;;7.56;89.01
35577;BME280;21680;52.400;16.920;2024-03-25T11:59:54;99490.92;;;7.59;88.96
35577;BME280;21680;52.400;16.920;2024-03-25T12:02:22;99490.10;;;7.60;88.96
35577;BME280;21680;52.400;16.920;2024-03-25T12:04:48;99486.08;;;7.67;88.94
35577;BME280;21680;52.400;16.920;2024-03-25T12:07:16;99480.50;;;7.71;88.98
35577;BME280;21680;52.400;16.920;2024-03-25T12:09:42;99484.34;;;7.83;89.01
35577;BME280;21680;52.400;16.920;2024-03-25T12:12:26;99486.25;;;7.97;89.09
35577;BME280;21680;52.400;16.920;2024-03-25T12:14:53;99486.71;;;8.09;89.07
35577;BME280;21680;52.400;16.920;2024-03-25T12:17:19;99492.37;;;8.20;89.01
35577;BME280;21680;52.400;16.920;2024-03-25T12:19:58;99490.05;;;8.27;88.72
35577;BME280;21680;52.400;16.920;2024-03-25T12:22:26;99503.08;;;8.34;88.38
35577;BME280;21680;52.400;16.920;2024-03-25T12:24:56;99494.20;;;8.33;88.13
35577;BME280;21680;52.400;16.920;2024-03-25T12:27:22;99498.52;;;8.39;88.16
35577;BME280;21680;52.400;16.920;2024-03-25T12:29:57;99507.02;;;8.44;87.96
35577;BME280;21680;52.400;16.920;2024-03-25T12:32:30;99502.02;;;8.43;87.70
35577;BME280;21680;52.400;16.920;2024-03-25T12:34:57;99510.83;;;8.45;87.49
35577;BME280;21680;52.400;16.920;2024-03-25T12:37:23;99507.67;;;8.44;87.41
35577;BME280;21680;52.400;16.920;2024-03-25T12:39:48;99512.73;;;8.50;87.34
35577;BME280;21680;52.400;16.920;2024-03-25T12:42:13;99514.27;;;8.55;87.28
35577;BME280;21680;52.400;16.920;2024-03-25T12:44:38;99515.63;;;8.59;87.25
35577;BME280;21680;52.400;16.920;2024-03-25T12:47:04;99514.91;;;8.62;87.11
35577;BME280;21680;52.400;16.920;2024-03-25T12:49:29;99515.83;;;8.65;86.91
35577;BME280;21680;52.400;16.920;2024-03-25T12:51:54;99514.91;;;8.72;87.05
35577;BME280;21680;52.400;16.920;2024-03-25T12:54:19;99514.70;;;8.83;86.96